Webcam Richtung Westen

Webcam27

Webcam Richtung Norden

Webcam36

Webcam Richtung Osten

Webcam09

Wetter(Würzburg):
202230Z AUTO 30004G08KT 20KM -RA BKN049 BKN059 OVC100 18/17 Q1008
		
Mon 21.06.2021, 22:30 UTC

Sichtweite bis zu 20 km
schwacher Regen
Wind aus 300° mit 04kt, in Böen bis zu 08kt
unterbrochene Wolkendecke (5-7 Achtel) bei 4900 Fuß
unterbrochene Wolkendecke (5-7 Achtel) bei 5900 Fuß
bedeckter Himmel (8 Achtel) bei 10000 Fuß
Temperatur: 18 °C
Taupunkt: 17 °C
QNH: 1008 hPa
                         Heute        Morgen
                         21.06        22.06
--------------------------------------------
Beginn der Dämmerung     02:28        02:28
Sonnenaufgang            03:12        03:12
Sonnenuntergang          19:32        19:32
Ende der Dämmerung       20:16        20:16

Alle Zeiten in UTC